createdAt,value
2023-02-09T00:01:21.666Z,12.97
2023-02-09T00:03:49.981Z,12.07
2023-02-09T00:06:19.664Z,12.03
2023-02-09T00:08:47.991Z,14.07
2023-02-09T00:11:45.410Z,13.10
2023-02-09T00:14:13.704Z,12.60
2023-02-09T00:16:41.844Z,13.07
2023-02-09T00:19:09.668Z,12.83
2023-02-09T00:21:37.675Z,12.63
2023-02-09T00:24:05.947Z,11.87
2023-02-09T00:26:33.868Z,12.17
2023-02-09T00:29:01.665Z,12.33
2023-02-09T00:31:29.644Z,12.03
2023-02-09T00:33:57.561Z,12.87
2023-02-09T00:36:25.386Z,12.33
2023-02-09T00:38:53.291Z,11.73
2023-02-09T00:41:41.002Z,12.23
2023-02-09T00:44:08.873Z,12.17
2023-02-09T00:46:36.908Z,13.23
2023-02-09T00:49:05.170Z,13.30
2023-02-09T00:51:33.169Z,12.43
2023-02-09T00:54:00.980Z,13.50
2023-02-09T00:56:28.925Z,13.00
2023-02-09T00:58:56.846Z,12.93
2023-02-09T01:01:24.678Z,12.00
2023-02-09T01:03:52.559Z,13.70
2023-02-09T01:06:20.341Z,12.97
2023-02-09T01:08:48.134Z,12.53
2023-02-09T01:11:16.562Z,13.30
2023-02-09T01:13:44.869Z,13.70
2023-02-09T01:16:14.709Z,12.83
2023-02-09T01:18:42.808Z,13.27
2023-02-09T01:21:14.971Z,12.60
2023-02-09T01:23:42.910Z,12.70
2023-02-09T01:26:11.420Z,12.10
2023-02-09T01:28:39.254Z,11.90
2023-02-09T01:31:07.584Z,12.93
2023-02-09T01:33:35.540Z,12.93
2023-02-09T01:36:06.549Z,13.53
2023-02-09T01:38:34.339Z,12.73
2023-02-09T01:41:02.133Z,12.70
2023-02-09T01:43:29.924Z,13.03
2023-02-09T01:45:57.838Z,13.23
2023-02-09T01:48:29.757Z,13.17
2023-02-09T01:50:59.289Z,13.47
2023-02-09T01:53:27.605Z,12.77
2023-02-09T01:56:01.914Z,13.07
2023-02-09T01:58:29.803Z,12.97
2023-02-09T02:00:59.893Z,12.27
2023-02-09T02:03:28.259Z,13.23
2023-02-09T02:06:04.173Z,13.67
2023-02-09T02:08:40.649Z,13.03
2023-02-09T02:11:08.762Z,12.73
2023-02-09T02:13:36.678Z,13.23
2023-02-09T02:16:16.866Z,12.70
2023-02-09T02:19:07.047Z,13.07
2023-02-09T02:21:43.839Z,12.53
2023-02-09T02:24:20.868Z,13.50
2023-02-09T02:27:05.798Z,14.27
2023-02-09T02:29:48.850Z,12.77
2023-02-09T02:32:28.848Z,14.00
2023-02-09T02:35:03.229Z,13.23
2023-02-09T02:37:40.043Z,14.37
2023-02-09T02:40:25.734Z,12.93
2023-02-09T02:42:54.014Z,14.60
2023-02-09T02:45:39.805Z,14.87
2023-02-09T02:48:22.305Z,12.63
2023-02-09T02:51:12.851Z,13.27
2023-02-09T02:53:42.696Z,14.10
2023-02-09T02:56:25.664Z,13.80
2023-02-09T02:58:53.602Z,13.77
2023-02-09T03:01:24.208Z,13.37
2023-02-09T03:03:52.059Z,14.03
2023-02-09T03:06:19.969Z,15.80
2023-02-09T03:08:55.455Z,15.30
2023-02-09T03:11:24.765Z,13.73
2023-02-09T03:14:13.255Z,12.83
2023-02-09T03:19:52.620Z,13.70
2023-02-09T03:22:40.228Z,13.93
2023-02-09T03:25:13.260Z,13.00
2023-02-09T03:27:44.277Z,14.50
2023-02-09T03:30:13.810Z,14.63
2023-02-09T03:32:42.224Z,14.17
2023-02-09T03:35:11.034Z,13.87
2023-02-09T03:37:38.787Z,13.37
2023-02-09T03:40:07.031Z,14.33
2023-02-09T03:42:34.878Z,13.80
2023-02-09T03:45:02.769Z,13.20
2023-02-09T03:47:32.058Z,14.60
2023-02-09T03:50:00.543Z,14.33
2023-02-09T03:52:28.366Z,14.30
2023-02-09T03:54:56.298Z,14.47
2023-02-09T03:57:24.027Z,13.00
2023-02-09T03:59:51.858Z,14.23
2023-02-09T04:02:19.924Z,14.23
2023-02-09T04:04:47.746Z,13.93
2023-02-09T04:07:15.808Z,14.37
2023-02-09T04:09:43.685Z,13.97
2023-02-09T04:12:11.554Z,14.53
2023-02-09T04:14:39.482Z,14.37
2023-02-09T04:17:07.459Z,14.60
2023-02-09T04:19:35.468Z,15.43
2023-02-09T04:22:03.456Z,14.17
2023-02-09T04:24:34.464Z,13.67
2023-02-09T04:27:02.300Z,15.43
2023-02-09T04:29:30.132Z,14.17
2023-02-09T04:31:58.104Z,15.43
2023-02-09T04:34:26.072Z,14.30
2023-02-09T04:36:53.963Z,15.17
2023-02-09T04:39:21.851Z,15.40
2023-02-09T04:41:49.704Z,15.67
2023-02-09T04:44:17.589Z,14.53
2023-02-09T04:46:45.819Z,16.07
2023-02-09T04:49:14.051Z,14.83
2023-02-09T04:51:42.035Z,14.13
2023-02-09T04:54:12.950Z,15.07
2023-02-09T04:56:40.803Z,14.10
2023-02-09T04:59:28.219Z,14.50
2023-02-09T05:01:56.161Z,14.40
2023-02-09T05:04:24.052Z,15.10
2023-02-09T05:06:51.876Z,14.63
2023-02-09T05:09:19.746Z,14.80
2023-02-09T05:11:47.554Z,14.43
2023-02-09T05:14:15.482Z,15.43
2023-02-09T05:16:43.348Z,15.63
2023-02-09T05:19:12.255Z,14.53
2023-02-09T05:21:40.070Z,14.37
2023-02-09T05:24:08.172Z,14.10
2023-02-09T05:26:36.168Z,13.73
2023-02-09T05:29:04.469Z,15.67
2023-02-09T05:31:32.361Z,14.40
2023-02-09T05:34:02.150Z,15.43
2023-02-09T05:36:29.946Z,14.80
2023-02-09T05:38:57.807Z,15.20
2023-02-09T05:41:44.191Z,15.93
2023-02-09T05:44:12.071Z,15.93
2023-02-09T05:46:42.669Z,16.07
2023-02-09T05:49:10.550Z,14.93
2023-02-09T05:51:38.490Z,15.90
2023-02-09T05:54:06.796Z,14.93
2023-02-09T05:56:34.704Z,15.80
2023-02-09T05:59:04.354Z,14.77
2023-02-09T06:01:37.605Z,16.53
2023-02-09T06:04:05.576Z,16.23
2023-02-09T06:06:33.524Z,16.00
2023-02-09T06:09:07.228Z,14.73
2023-02-09T06:11:35.084Z,16.00
2023-02-09T06:14:02.960Z,15.30
2023-02-09T06:16:30.880Z,15.73
2023-02-09T06:18:58.617Z,16.17
2023-02-09T06:21:26.539Z,15.73
2023-02-09T06:23:54.307Z,16.30
2023-02-09T06:26:22.225Z,16.17
2023-02-09T06:28:50.008Z,16.33
2023-02-09T06:31:21.134Z,15.83
2023-02-09T06:33:49.012Z,16.93
2023-02-09T06:36:21.928Z,15.67
2023-02-09T06:38:54.414Z,15.87
2023-02-09T06:41:27.095Z,15.93
2023-02-09T06:43:55.212Z,16.87
2023-02-09T06:46:23.158Z,16.47
2023-02-09T06:48:51.349Z,16.93
2023-02-09T06:51:19.202Z,19.07
2023-02-09T06:53:50.426Z,17.60
2023-02-09T06:56:18.380Z,15.40
2023-02-09T06:58:46.373Z,15.57
2023-02-09T07:01:16.873Z,15.40
2023-02-09T07:03:45.150Z,16.27
2023-02-09T07:06:20.037Z,16.57
2023-02-09T07:08:48.045Z,14.90
2023-02-09T07:11:17.526Z,16.43
2023-02-09T07:13:45.462Z,15.40
2023-02-09T07:16:13.319Z,16.27
2023-02-09T07:18:41.343Z,16.40
2023-02-09T07:21:19.781Z,17.83
2023-02-09T07:23:48.416Z,16.53
2023-02-09T07:26:17.625Z,16.07
2023-02-09T07:28:45.600Z,16.83
2023-02-09T07:31:14.822Z,16.30
2023-02-09T07:33:42.714Z,15.60
2023-02-09T07:36:12.005Z,16.77
2023-02-09T07:38:40.139Z,15.57
2023-02-09T07:41:08.577Z,16.37
2023-02-09T07:43:36.583Z,16.83
2023-02-09T07:46:05.700Z,18.13
2023-02-09T07:48:34.134Z,17.87
2023-02-09T07:51:02.097Z,17.53
2023-02-09T07:53:30.195Z,16.67
2023-02-09T07:55:58.030Z,17.07
2023-02-09T07:58:25.883Z,17.30
2023-02-09T08:00:53.746Z,17.93
2023-02-09T08:03:22.684Z,17.37
2023-02-09T08:06:08.794Z,16.63
2023-02-09T08:08:36.604Z,17.10
2023-02-09T08:11:05.533Z,17.00
2023-02-09T08:13:36.828Z,16.83
2023-02-09T08:16:06.149Z,17.00
2023-02-09T08:18:37.273Z,16.17
2023-02-09T08:21:06.355Z,16.63
2023-02-09T08:23:35.652Z,15.63
2023-02-09T08:26:07.121Z,16.83
2023-02-09T08:28:43.606Z,16.17
2023-02-09T08:31:16.871Z,16.53
2023-02-09T08:33:44.987Z,15.97
2023-02-09T08:36:13.258Z,16.70
2023-02-09T08:38:41.290Z,18.17
2023-02-09T08:41:10.196Z,17.33
2023-02-09T08:43:38.213Z,15.70
2023-02-09T08:46:13.325Z,15.80
2023-02-09T08:48:42.414Z,16.07
2023-02-09T08:51:10.808Z,16.30
2023-02-09T08:53:38.560Z,16.60
2023-02-09T08:56:06.776Z,15.73
2023-02-09T08:58:34.695Z,17.00
2023-02-09T09:01:02.747Z,16.80
2023-02-09T09:03:32.788Z,16.80
2023-02-09T09:06:01.555Z,17.37
2023-02-09T09:08:29.599Z,16.03
2023-02-09T09:10:57.475Z,16.40
2023-02-09T09:13:25.878Z,17.57
2023-02-09T09:15:53.949Z,16.67
2023-02-09T09:18:21.920Z,17.40
2023-02-09T09:20:50.035Z,17.00
2023-02-09T09:23:17.883Z,17.53
2023-02-09T09:25:46.101Z,16.90
2023-02-09T09:28:14.321Z,17.50
2023-02-09T09:30:42.204Z,17.27
2023-02-09T09:33:10.141Z,17.70
2023-02-09T09:35:38.004Z,17.73
2023-02-09T09:38:05.980Z,16.93
2023-02-09T09:40:35.515Z,17.57
2023-02-09T09:43:09.032Z,16.20
2023-02-09T09:45:37.555Z,18.30
2023-02-09T09:48:05.581Z,17.97
2023-02-09T09:50:37.491Z,17.37
2023-02-09T09:53:19.468Z,18.10
2023-02-09T09:55:47.701Z,17.87
2023-02-09T09:58:18.796Z,17.90
2023-02-09T10:00:46.874Z,18.20
2023-02-09T10:03:16.388Z,18.40
2023-02-09T10:05:44.938Z,17.63
2023-02-09T10:08:26.946Z,19.10
2023-02-09T10:14:06.557Z,17.37
2023-02-09T10:16:35.660Z,16.93
2023-02-09T10:19:05.176Z,18.47
2023-02-09T10:21:35.268Z,16.33
2023-02-09T10:24:03.042Z,17.60
2023-02-09T10:26:35.273Z,17.83
2023-02-09T10:29:27.318Z,17.87
2023-02-09T10:32:05.616Z,17.80
2023-02-09T10:34:45.775Z,17.03
2023-02-09T10:37:36.703Z,17.33
2023-02-09T10:40:16.277Z,17.57
2023-02-09T10:43:05.268Z,17.27
2023-02-09T10:45:43.297Z,18.30
2023-02-09T10:48:14.052Z,17.67
2023-02-09T10:50:51.794Z,17.37
2023-02-09T10:53:25.220Z,16.23
2023-02-09T10:55:56.174Z,16.90
2023-02-09T10:58:29.160Z,17.20
2023-02-09T11:01:10.129Z,18.00
2023-02-09T11:03:38.771Z,17.50
2023-02-09T11:06:24.537Z,17.30
2023-02-09T11:08:56.442Z,17.93
2023-02-09T11:11:33.964Z,15.73
2023-02-09T11:14:07.235Z,15.70
2023-02-09T11:17:04.411Z,17.30
2023-02-09T11:19:57.195Z,16.77
2023-02-09T11:22:50.151Z,16.03
2023-02-09T11:25:21.339Z,16.13
2023-02-09T11:28:17.000Z,16.30
2023-02-09T11:30:48.861Z,17.20
2023-02-09T11:33:16.843Z,17.43
2023-02-09T11:36:12.375Z,16.77
2023-02-09T11:38:45.446Z,17.50
2023-02-09T11:41:35.106Z,18.00
2023-02-09T11:44:03.404Z,17.70
2023-02-09T11:46:34.641Z,16.47
2023-02-09T11:49:06.078Z,17.27
2023-02-09T11:51:34.990Z,17.37
2023-02-09T11:54:09.129Z,16.77
2023-02-09T11:56:49.526Z,17.13
2023-02-09T11:59:38.270Z,17.87
2023-02-09T12:02:26.432Z,17.60
2023-02-09T12:05:02.092Z,18.13
2023-02-09T12:07:50.156Z,17.20
2023-02-09T12:10:29.080Z,19.90
2023-02-09T12:12:56.834Z,17.20
2023-02-09T12:15:27.595Z,17.00
2023-02-09T12:18:07.069Z,18.00
2023-02-09T12:20:37.560Z,18.23
2023-02-09T12:23:08.773Z,19.10
2023-02-09T12:25:51.898Z,17.97
2023-02-09T12:28:28.908Z,18.73
2023-02-09T12:31:00.730Z,17.07
2023-02-09T12:33:29.444Z,18.87
2023-02-09T12:36:09.254Z,18.37
2023-02-09T12:38:56.495Z,17.17
2023-02-09T12:41:25.582Z,17.50
2023-02-09T12:44:11.776Z,18.23
2023-02-09T12:46:45.552Z,18.40
2023-02-09T12:49:13.399Z,18.57
2023-02-09T12:51:56.132Z,16.73
2023-02-09T12:54:45.459Z,18.37
2023-02-09T12:57:16.131Z,18.57
2023-02-09T13:00:01.799Z,18.63
2023-02-09T13:02:43.421Z,19.10
2023-02-09T13:05:24.447Z,18.60
2023-02-09T13:07:56.621Z,19.20
2023-02-09T13:10:26.671Z,18.00
2023-02-09T13:13:12.873Z,18.73
2023-02-09T13:15:53.116Z,19.10
2023-02-09T13:18:26.812Z,18.77
2023-02-09T13:21:06.224Z,19.70
2023-02-09T13:23:43.178Z,18.97
2023-02-09T13:26:22.677Z,18.07
2023-02-09T13:28:50.600Z,18.37
2023-02-09T13:31:25.186Z,17.40
2023-02-09T13:33:54.604Z,18.70
2023-02-09T13:36:46.877Z,17.73
2023-02-09T13:39:25.126Z,17.40
2023-02-09T13:41:54.808Z,17.77
2023-02-09T13:44:24.012Z,17.43
2023-02-09T13:46:53.330Z,18.00
2023-02-09T13:49:23.131Z,17.63
2023-02-09T13:52:16.830Z,18.77
2023-02-09T13:54:44.837Z,18.43
2023-02-09T13:57:32.248Z,17.40
2023-02-09T14:00:30.218Z,19.13
2023-02-09T14:03:13.198Z,17.43
2023-02-09T14:05:44.368Z,24.93
2023-02-09T14:08:13.631Z,18.00
2023-02-09T14:10:42.793Z,17.87
2023-02-09T14:13:36.428Z,17.87
2023-02-09T14:16:10.245Z,18.97
2023-02-09T14:18:46.116Z,17.73
2023-02-09T14:21:16.768Z,17.40
2023-02-09T14:23:46.485Z,17.80
2023-02-09T14:26:36.770Z,16.60
2023-02-09T14:29:15.169Z,18.07
2023-02-09T14:31:49.182Z,17.57
2023-02-09T14:34:39.645Z,19.07
2023-02-09T14:37:16.336Z,16.57
2023-02-09T14:40:23.097Z,17.13
2023-02-09T14:43:23.162Z,17.77
2023-02-09T14:45:59.781Z,17.60
2023-02-09T14:48:32.378Z,18.07
2023-02-09T14:51:11.877Z,16.50
2023-02-09T14:53:39.650Z,14.23
2023-02-09T14:56:07.670Z,17.70
2023-02-09T14:58:35.471Z,17.50
2023-02-09T15:01:03.595Z,17.40
2023-02-09T15:03:31.569Z,18.00
2023-02-09T15:06:00.649Z,17.07
2023-02-09T15:08:29.369Z,17.23
2023-02-09T15:11:01.770Z,17.77
2023-02-09T15:13:30.235Z,18.10
2023-02-09T15:15:58.159Z,16.83
2023-02-09T15:18:27.171Z,16.60
2023-02-09T15:20:55.036Z,17.37
2023-02-09T15:23:22.878Z,16.97
2023-02-09T15:25:50.599Z,15.53
2023-02-09T15:28:29.088Z,16.07
2023-02-09T15:30:57.582Z,16.53
2023-02-09T15:33:26.653Z,17.27
2023-02-09T15:35:54.591Z,16.67
2023-02-09T15:38:22.354Z,15.80
2023-02-09T15:41:09.563Z,16.03
2023-02-09T15:43:56.027Z,17.23
2023-02-09T15:46:42.242Z,16.73
2023-02-09T15:49:10.189Z,16.17
2023-02-09T15:51:38.923Z,16.13
2023-02-09T15:54:10.606Z,16.80
2023-02-09T15:56:38.549Z,16.30
2023-02-09T15:59:06.772Z,16.07
2023-02-09T16:01:35.579Z,16.07
2023-02-09T16:04:15.743Z,15.90
2023-02-09T16:06:50.015Z,16.00
2023-02-09T16:09:28.763Z,16.50
2023-02-09T16:11:56.699Z,16.63
2023-02-09T16:14:27.521Z,16.67
2023-02-09T16:16:55.409Z,17.77
2023-02-09T16:19:23.401Z,17.77
2023-02-09T16:21:52.954Z,16.10
2023-02-09T16:24:31.240Z,17.30
2023-02-09T16:27:00.867Z,17.43
2023-02-09T16:29:28.729Z,17.30
2023-02-09T16:31:56.775Z,17.23
2023-02-09T16:34:24.660Z,16.17
2023-02-09T16:36:52.436Z,17.43
2023-02-09T16:39:21.455Z,16.00
2023-02-09T16:41:51.027Z,16.63
2023-02-09T16:44:26.885Z,16.20
2023-02-09T16:46:55.683Z,16.27
2023-02-09T16:49:33.178Z,17.10
2023-02-09T16:52:06.948Z,16.90
2023-02-09T16:54:38.467Z,15.23
2023-02-09T16:57:06.406Z,15.50
2023-02-09T16:59:34.173Z,16.43
2023-02-09T17:02:03.339Z,16.47
2023-02-09T17:04:31.199Z,15.60
2023-02-09T17:06:59.025Z,15.80
2023-02-09T17:09:26.823Z,16.27
2023-02-09T17:11:54.674Z,15.40
2023-02-09T17:14:22.471Z,17.10
2023-02-09T17:16:51.101Z,16.47
2023-02-09T17:19:19.360Z,15.83
2023-02-09T17:21:47.212Z,16.80
2023-02-09T17:24:16.832Z,17.20
2023-02-09T17:26:44.813Z,16.87
2023-02-09T17:29:13.013Z,17.33
2023-02-09T17:31:52.938Z,17.47
2023-02-09T17:34:21.866Z,16.83
2023-02-09T17:36:49.713Z,17.57
2023-02-09T17:39:19.836Z,16.63
2023-02-09T17:41:49.651Z,16.20
2023-02-09T17:44:39.192Z,16.83
2023-02-09T17:47:14.018Z,16.83
2023-02-09T17:49:41.888Z,16.20
2023-02-09T17:52:18.123Z,16.83
2023-02-09T17:54:46.659Z,17.20
2023-02-09T17:57:15.703Z,20.60
2023-02-09T17:59:43.736Z,17.47
2023-02-09T18:02:21.641Z,17.87
2023-02-09T18:04:49.494Z,18.80
2023-02-09T18:07:21.365Z,18.47
2023-02-09T18:09:49.307Z,18.30
2023-02-09T18:12:21.620Z,18.03
2023-02-09T18:14:49.410Z,18.43
2023-02-09T18:17:17.757Z,18.73
2023-02-09T18:19:45.557Z,19.43
2023-02-09T18:22:15.171Z,18.43
2023-02-09T18:24:42.964Z,18.83
2023-02-09T18:27:14.794Z,19.40
2023-02-09T18:29:42.704Z,18.63
2023-02-09T18:32:16.062Z,20.83
2023-02-09T18:34:43.971Z,18.63
2023-02-09T18:37:11.752Z,19.67
2023-02-09T18:39:47.028Z,19.40
2023-02-09T18:42:16.093Z,19.93
2023-02-09T18:44:44.081Z,20.03
2023-02-09T18:47:12.207Z,19.57
2023-02-09T18:49:40.178Z,20.83
2023-02-09T18:52:09.491Z,18.87
2023-02-09T18:54:37.286Z,21.03
2023-02-09T18:57:05.161Z,19.67
2023-02-09T18:59:33.096Z,20.27
2023-02-09T19:02:00.953Z,20.73
2023-02-09T19:04:28.775Z,19.77
2023-02-09T19:06:56.997Z,19.40
2023-02-09T19:09:24.808Z,19.97
2023-02-09T19:11:52.649Z,19.03
2023-02-09T19:14:38.921Z,18.47
2023-02-09T19:17:07.967Z,20.03
2023-02-09T19:19:35.873Z,19.67
2023-02-09T19:22:03.700Z,19.90
2023-02-09T19:24:31.580Z,21.07
2023-02-09T19:26:59.336Z,19.87
2023-02-09T19:29:27.358Z,20.33
2023-02-09T19:31:56.835Z,20.47
2023-02-09T19:34:24.973Z,21.93
2023-02-09T19:36:52.747Z,19.73
2023-02-09T19:39:21.132Z,20.13
2023-02-09T19:41:50.207Z,20.83
2023-02-09T19:44:18.067Z,21.63
2023-02-09T19:46:46.704Z,20.00
2023-02-09T19:49:14.624Z,19.40
2023-02-09T19:51:42.648Z,19.13
2023-02-09T19:54:10.455Z,18.87
2023-02-09T19:56:38.573Z,19.20
2023-02-09T19:59:06.430Z,20.10
2023-02-09T20:01:34.413Z,18.00
2023-02-09T20:04:02.265Z,16.27
2023-02-09T20:06:31.052Z,16.73
2023-02-09T20:09:00.041Z,16.07
2023-02-09T20:11:28.021Z,15.00
2023-02-09T20:13:55.981Z,15.07
2023-02-09T20:16:25.602Z,15.33
2023-02-09T20:18:53.667Z,15.23
2023-02-09T20:21:22.354Z,15.17
2023-02-09T20:23:50.249Z,13.97
2023-02-09T20:26:19.766Z,16.87
2023-02-09T20:28:47.546Z,43.47
2023-02-09T20:31:19.644Z,17.20
2023-02-09T20:33:47.480Z,18.00
2023-02-09T20:36:15.319Z,15.47
2023-02-09T20:38:43.088Z,20.42
2023-02-09T20:41:12.628Z,16.83
2023-02-09T20:43:59.435Z,15.83
2023-02-09T20:46:47.466Z,16.00
2023-02-09T20:49:17.282Z,16.03
2023-02-09T20:51:45.526Z,17.87
2023-02-09T20:54:14.073Z,16.53
2023-02-09T20:56:42.209Z,17.00
2023-02-09T20:59:10.128Z,16.37
2023-02-09T21:01:38.878Z,16.63
2023-02-09T21:04:08.542Z,16.60
2023-02-09T21:06:38.294Z,16.83
2023-02-09T21:09:06.885Z,18.10
2023-02-09T21:11:34.728Z,16.17
2023-02-09T21:14:02.865Z,15.77
2023-02-09T21:16:32.018Z,17.07
2023-02-09T21:19:00.197Z,16.07
2023-02-09T21:21:28.565Z,16.63
2023-02-09T21:23:56.498Z,17.17
2023-02-09T21:26:25.685Z,19.70
2023-02-09T21:28:57.381Z,18.47
2023-02-09T21:31:27.247Z,17.60
2023-02-09T21:33:55.160Z,16.77
2023-02-09T21:36:23.136Z,17.90
2023-02-09T21:38:50.981Z,17.73
2023-02-09T21:41:38.853Z,18.20
2023-02-09T21:44:06.989Z,17.37
2023-02-09T21:46:34.837Z,17.23
2023-02-09T21:49:02.743Z,16.33
2023-02-09T21:51:30.587Z,16.97
2023-02-09T21:53:58.447Z,16.47
2023-02-09T21:56:27.138Z,16.83
2023-02-09T21:58:55.022Z,14.20
2023-02-09T22:01:22.884Z,15.23
2023-02-09T22:03:51.012Z,14.83
2023-02-09T22:06:18.860Z,14.20
2023-02-09T22:08:46.769Z,15.40
2023-02-09T22:11:14.563Z,14.43
2023-02-09T22:13:42.460Z,16.37
2023-02-09T22:16:11.008Z,15.23
2023-02-09T22:18:38.964Z,15.77
2023-02-09T22:21:10.102Z,15.13
2023-02-09T22:23:37.977Z,16.20
2023-02-09T22:26:06.211Z,16.13
2023-02-09T22:28:36.434Z,15.53
2023-02-09T22:31:14.931Z,15.50
2023-02-09T22:33:43.006Z,15.27
2023-02-09T22:36:14.630Z,16.23
2023-02-09T22:38:42.532Z,16.30
2023-02-09T22:41:22.468Z,16.50
2023-02-09T22:43:55.685Z,17.87
2023-02-09T22:46:28.628Z,16.53
2023-02-09T22:48:58.112Z,15.03
2023-02-09T22:51:27.977Z,14.50
2023-02-09T22:53:56.878Z,15.17
2023-02-09T22:56:24.873Z,15.57
2023-02-09T22:58:56.440Z,14.67
2023-02-09T23:01:24.256Z,14.20
2023-02-09T23:03:52.134Z,13.20
2023-02-09T23:06:21.768Z,14.10
2023-02-09T23:08:49.572Z,12.97
2023-02-09T23:11:18.088Z,14.00
2023-02-09T23:13:45.929Z,12.67
2023-02-09T23:16:21.834Z,12.27
2023-02-09T23:18:53.083Z,13.27
2023-02-09T23:21:21.818Z,13.00
2023-02-09T23:23:49.644Z,13.73
2023-02-09T23:26:18.182Z,12.30
2023-02-09T23:28:46.342Z,12.30
2023-02-09T23:31:19.859Z,12.60
2023-02-09T23:33:47.721Z,12.70
2023-02-09T23:36:17.751Z,13.83
2023-02-09T23:38:45.797Z,13.43
2023-02-09T23:41:17.656Z,13.07
2023-02-09T23:43:45.425Z,13.77
2023-02-09T23:46:14.756Z,12.80
2023-02-09T23:48:42.530Z,14.03
2023-02-09T23:51:12.672Z,13.17
2023-02-09T23:53:40.501Z,12.60
2023-02-09T23:56:08.626Z,14.20
2023-02-09T23:58:40.895Z,14.07
